Detalii statie AGRONOVA [00001CEC]

Toti senzorii

Date Temperatura solului [C]Precipitatii [mm]Voltaj baterie [mV]Leaf Wetness [Min]HC Air temperature [C]HC Relative humidity [%]Punctul de roua [C]
medieminmaxsumaultimatimpmedieminmaxmediemediemin
2019-10-19 22:00:00 15.5 15.4 15.7 0 6474 12.02 11.5 12.65 0 0 0
2019-10-19 23:00:00 15.2 15 15.5 0 6464 10.66 9.93 11.31 0 0 0
2019-10-20 00:00:00 15.1 14.9 15.2 0 6474 9.78 9.48 10.26 0 0 0
2019-10-20 01:00:00 14.9 14.8 15.1 0 6464 9.76 9.01 10.84 0 0 0
2019-10-20 02:00:00 14.7 14.5 14.9 0 6464 10.23 8.29 11.28 0 0 0
2019-10-20 03:00:00 14.5 14.5 14.8 0 6454 8.7 7.23 9.82 0 0 0
2019-10-20 04:00:00 14.4 14.3 14.5 0 6454 7 6.53 8.2 0 0 0
2019-10-20 05:00:00 14.2 14.1 14.4 0 6444 6.71 6.29 7.04 0 0 0
2019-10-20 06:00:00 14.1 14 14.2 0 6434 6.02 5.78 6.34 0 0 0
2019-10-20 07:00:00 13.9 13.9 14.1 0 6424 5.67 5.22 6.09 0 0 0
2019-10-20 08:00:00 13.7 13.6 13.9 0 6512 6.84 5.44 8.49 0 0 0
2019-10-20 09:00:00 13.6 13.5 13.8 0 6766 11.08 8.84 13.24 0 0 0
2019-10-20 10:00:00 13.6 13.6 13.7 0 7088 16.37 13.68 18.7 0 0 0
2019-10-20 11:00:00 13.8 13.7 14 0 7254 18.93 18.14 20.1 0 0 0
2019-10-20 12:00:00 14.1 13.9 14.3 0 7254 20.97 20.1 22.31 0 0 0
2019-10-20 13:00:00 14.6 14.4 14.8 0 7246 22.67 21.19 24.28 0 0 0
2019-10-20 14:00:00 15 14.8 15.3 0 7246 24.25 23.72 24.78 0 0 0
2019-10-20 15:00:00 15.4 15.1 15.8 0 7236 24.41 23.89 24.77 0 0 0
2019-10-20 16:00:00 15.7 15.6 15.9 0 7236 24.23 23.85 24.48 0 0 0
2019-10-20 17:00:00 16 15.9 16.2 0 6932 23.08 21.98 23.76 0 0 0
2019-10-20 18:00:00 16.1 16 16.3 0 6728 18.66 17.19 21.25 0 0 0
2019-10-20 19:00:00 16 15.9 16.3 0 6572 15.56 13.87 16.94 0 0 0
2019-10-20 20:00:00 15.9 15.8 16.1 0 6484 13.22 11.83 14.06 0 0 0
2019-10-20 21:00:00 15.6 15.4 15.8 0 6474 11.32 10.58 11.77 0 0 0
2019-10-20 22:00:00 15.4 15.3 15.6 0 6474 10.8 10.1 11.36 0 0 0
2019-10-20 23:00:00 15.2 15.1 15.4 0 6464 10.44 9.28 11.26 0 0 0
2019-10-21 00:00:00 15 14.9 15.2 0 6474 8.39 7.87 8.82 0 0 0
2019-10-21 01:00:00 14.8 14.7 15 0 6454 8.42 8 8.94 0 0 0
2019-10-21 02:00:00 14.5 14.4 14.7 0 6464 8.33 7.54 9.42 0 0 0
2019-10-21 03:00:00 14.4 14.3 14.5 0 6454 6.54 5.66 7.26 0 0 0
2019-10-21 04:00:00 14.2 14.1 14.4 0 6444 5.8 5.15 6.39 0 0 0
2019-10-21 05:00:00 14.1 14 14.2 0 6434 5.32 5.04 5.53 0 0 0
2019-10-21 06:00:00 13.9 13.8 14 0 6434 4.93 4.69 5.3 0 0 0
2019-10-21 07:00:00 13.7 13.7 13.9 0 6424 4.84 4.4 5.16 0 0 0
2019-10-21 08:00:00 13.6 13.5 13.7 0 6474 5.25 4.38 6.68 0 0 0
2019-10-21 09:00:00 13.4 13.4 13.6 0 6660 9.2 7.18 10.58 0 0 0
2019-10-21 10:00:00 13.5 13.4 13.6 0 7050 12.35 10.72 14.07 0 0 0
2019-10-21 11:00:00 13.7 13.6 13.9 0 7254 17.44 14.38 20.52 0 0 0
2019-10-21 12:00:00 14 13.8 14.3 0 7246 20.99 19.96 22.19 0 0 0
2019-10-21 13:00:00 14.4 14.3 14.7 0 7246 24.31 22.93 25.96 0 0 0
2019-10-21 14:00:00 14.9 14.7 15.2 0 7246 26.76 26.1 27.35 0 0 0
2019-10-21 15:00:00 15.4 15.3 15.8 0 7236 26.81 26.28 27.12 0 0 0
2019-10-21 16:00:00 15.7 15.5 15.9 0 7158 26.42 25.77 26.91 0 0 0
2019-10-21 17:00:00 16 15.8 16.2 0 6932 24.18 22.78 25.7 0 0 0
2019-10-21 18:00:00 16.1 16.1 16.2 0 6728 20.08 16.94 22.48 0 0 0
2019-10-21 19:00:00 16.1 16 16.3 0 6572 15.71 14.29 16.57 0 0 0
2019-10-21 20:00:00 15.9 15.8 16.1 0 6484 14.08 12.38 14.84 0 0 0
2019-10-21 21:00:00 15.7 15.6 16 0 6484 12.14 11.23 12.83 0 0 0